Time;durP1;ratioP1;P1;durP2;ratioP2;P2;SDS_P1;SDS_P2;PMS_P1;PMS_P2;Temp;Humidity;BMP_temperature;BMP_pressure;BME280_temperature;BME280_humidity;BME280_pressure;Samples;Min_cycle;Max_cycle;Signal;HPM_P1;HPM_P2
2021/12/30 00:01:36;;;;;;;1.40;1.30;;;11.00;99.90;;;;;;5051175;28;20171;-74
2021/12/30 00:04:03;;;;;;;3.83;1.50;;;11.00;99.90;;;;;;5050920;28;20202;-75
2021/12/30 00:06:30;;;;;;;1.33;1.23;;;10.90;99.90;;;;;;5050892;28;20668;-74
2021/12/30 00:08:56;;;;;;;1.40;1.27;;;10.90;99.90;;;;;;5050434;28;20202;-75
2021/12/30 00:11:23;;;;;;;2.30;1.40;;;10.90;99.90;;;;;;5053040;28;20285;-74
2021/12/30 00:13:49;;;;;;;3.33;1.43;;;11.00;99.90;;;;;;5054631;28;20640;-74
2021/12/30 00:16:16;;;;;;;4.20;1.60;;;11.00;99.90;;;;;;5054729;28;20179;-74
2021/12/30 00:18:42;;;;;;;3.23;1.40;;;11.00;99.90;;;;;;5053870;28;20195;-74
2021/12/30 00:21:08;;;;;;;1.90;1.30;;;10.90;99.90;;;;;;5054257;28;20229;-74
2021/12/30 00:23:34;;;;;;;3.87;1.60;;;10.90;99.90;;;;;;5054336;28;20171;-74
2021/12/30 00:26:00;;;;;;;2.53;1.30;;;10.90;99.90;;;;;;5054463;28;20310;-74
2021/12/30 00:28:26;;;;;;;1.60;1.33;;;10.90;99.90;;;;;;5053991;28;20191;-74
2021/12/30 00:30:52;;;;;;;2.33;1.30;;;11.00;99.90;;;;;;5054488;28;20206;-74
2021/12/30 00:33:19;;;;;;;2.87;1.30;;;11.00;99.90;;;;;;5054142;28;20581;-74
2021/12/30 00:35:45;;;;;;;3.90;1.30;;;10.90;99.90;;;;;;5054437;28;20541;-74
2021/12/30 00:38:10;;;;;;;2.40;1.40;;;11.00;99.90;;;;;;5053855;28;20679;-74
2021/12/30 00:40:37;;;;;;;2.50;1.20;;;11.00;99.90;;;;;;5055197;28;20211;-74
2021/12/30 00:43:04;;;;;;;2.03;1.23;;;11.00;99.90;;;;;;5055130;28;20175;-75
2021/12/30 00:45:31;;;;;;;2.90;1.23;;;10.90;99.90;;;;;;5055411;28;20265;-74
2021/12/30 00:47:56;;;;;;;1.20;1.10;;;10.90;99.90;;;;;;5053625;28;20230;-74
2021/12/30 00:50:24;;;;;;;4.20;3.33;;;10.80;99.90;;;;;;5053966;28;20207;-74
2021/12/30 00:52:49;;;;;;;11.00;8.57;;;10.70;99.90;;;;;;5054050;28;20167;-74
2021/12/30 00:55:15;;;;;;;6.60;5.83;;;10.70;99.90;;;;;;5053669;28;20199;-75
2021/12/30 00:57:42;;;;;;;8.63;7.13;;;10.60;99.90;;;;;;5053777;28;20195;-74
2021/12/30 01:00:12;;;;;;;6.43;4.93;;;10.60;99.90;;;;;;5053866;28;20190;-74
2021/12/30 01:02:38;;;;;;;4.97;3.63;;;10.60;99.90;;;;;;5053824;28;20202;-74
2021/12/30 01:05:04;;;;;;;3.30;3.00;;;10.60;99.90;;;;;;5053526;28;20582;-74
2021/12/30 01:07:30;;;;;;;4.47;2.20;;;10.50;99.90;;;;;;5053113;28;20202;-74
2021/12/30 01:09:56;;;;;;;3.93;2.60;;;10.50;99.90;;;;;;5053803;28;20183;-74
2021/12/30 01:12:22;;;;;;;2.87;2.10;;;10.50;99.90;;;;;;5053467;28;20179;-74
2021/12/30 01:14:48;;;;;;;2.97;1.80;;;10.50;99.90;;;;;;5053461;28;20624;-74
2021/12/30 01:17:25;;;;;;;2.50;2.00;;;10.50;99.90;;;;;;5053050;28;20179;-74
2021/12/30 01:19:51;;;;;;;3.03;1.50;;;10.50;99.90;;;;;;5053315;28;20532;-74
2021/12/30 01:22:35;;;;;;;7.27;1.90;;;10.60;99.90;;;;;;5052934;28;20179;-73
2021/12/30 01:25:02;;;;;;;5.53;1.90;;;10.50;99.90;;;;;;5053364;28;20681;-75
2021/12/30 01:27:28;;;;;;;3.03;1.70;;;10.40;99.90;;;;;;5052747;28;20214;-74
2021/12/30 01:29:53;;;;;;;4.20;1.73;;;10.40;99.90;;;;;;5053143;28;20175;-74
2021/12/30 01:32:19;;;;;;;2.37;1.70;;;10.30;99.90;;;;;;5053122;28;20183;-75
2021/12/30 01:34:45;;;;;;;1.97;1.57;;;10.40;99.90;;;;;;5053005;28;20232;-74
2021/12/30 01:37:13;;;;;;;2.57;1.70;;;10.50;99.90;;;;;;5052666;28;20583;-74
2021/12/30 01:39:40;;;;;;;1.80;1.60;;;10.50;99.90;;;;;;5053191;28;20206;-74
2021/12/30 01:42:08;;;;;;;3.63;1.60;;;10.60;99.90;;;;;;5053120;28;20262;-74
2021/12/30 01:44:34;;;;;;;1.73;1.40;;;10.60;99.90;;;;;;5052837;28;20686;-74
2021/12/30 01:47:00;;;;;;;1.70;1.50;;;10.60;99.90;;;;;;5052189;28;20179;-74
2021/12/30 01:49:26;;;;;;;2.67;1.30;;;10.70;99.90;;;;;;5053141;28;20262;-74
2021/12/30 01:51:53;;;;;;;3.93;1.87;;;10.80;99.90;;;;;;5052911;28;20258;-74
2021/12/30 01:54:20;;;;;;;1.93;1.30;;;10.80;99.90;;;;;;5052598;28;20226;-74
2021/12/30 01:56:46;;;;;;;3.03;1.20;;;10.80;99.90;;;;;;5064338;28;20218;-74
2021/12/30 01:59:11;;;;;;;1.30;1.10;;;10.70;99.90;;;;;;5066216;28;20727;-74
2021/12/30 02:01:38;;;;;;;3.30;1.20;;;10.80;99.90;;;;;;5057189;28;20639;-74
2021/12/30 02:04:04;;;;;;;1.30;1.10;;;10.70;99.90;;;;;;5052775;28;20171;-74
2021/12/30 02:06:30;;;;;;;2.30;1.60;;;10.60;99.90;;;;;;5052583;28;20752;-74
2021/12/30 02:08:55;;;;;;;3.27;1.60;;;10.50;99.90;;;;;;5052038;28;20198;-74
2021/12/30 02:11:22;;;;;;;3.03;1.40;;;10.50;99.90;;;;;;5052534;28;20278;-75
2021/12/30 02:13:49;;;;;;;2.00;1.53;;;10.50;99.90;;;;;;5052901;28;20176;-74
2021/12/30 02:16:17;;;;;;;2.57;1.50;;;10.40;99.90;;;;;;5052444;28;20194;-74
2021/12/30 02:18:43;;;;;;;1.27;1.10;;;10.30;99.90;;;;;;5054541;28;20191;-74
2021/12/30 02:21:09;;;;;;;2.00;1.40;;;10.30;99.90;;;;;;5055210;28;20228;-74
2021/12/30 02:23:37;;;;;;;3.57;1.53;;;10.40;99.90;;;;;;5052452;28;20278;-74
2021/12/30 02:26:08;;;;;;;4.33;1.90;;;10.50;99.90;;;;;;5052035;28;20937;-74
2021/12/30 02:28:36;;;;;;;1.40;1.30;;;10.60;99.90;;;;;;5051629;28;20611;-74
2021/12/30 02:31:05;;;;;;;1.87;1.30;;;10.60;99.90;;;;;;5052180;28;20274;-74
2021/12/30 02:33:31;;;;;;;1.30;1.13;;;10.60;99.90;;;;;;5052029;28;20577;-75
2021/12/30 02:35:57;;;;;;;3.60;1.27;;;10.60;99.90;;;;;;5052063;28;20202;-74
2021/12/30 02:38:24;;;;;;;2.63;1.40;;;10.60;99.90;;;;;;5051533;28;20187;-74
2021/12/30 02:40:54;;;;;;;3.83;1.40;;;10.50;99.90;;;;;;5052009;28;20191;-75
2021/12/30 02:43:23;;;;;;;1.60;1.23;;;10.40;99.90;;;;;;5052129;28;20210;-74
2021/12/30 02:45:50;;;;;;;6.40;1.70;;;10.40;99.90;;;;;;5051914;28;20222;-74
2021/12/30 02:48:22;;;;;;;5.33;1.50;;;10.30;99.90;;;;;;5051142;28;20691;-74
2021/12/30 02:50:49;;;;;;;1.93;1.70;;;10.20;99.90;;;;;;5051685;28;20631;-74
2021/12/30 02:53:15;;;;;;;1.60;1.50;;;10.10;99.90;;;;;;5051622;28;20672;-73
2021/12/30 02:55:42;;;;;;;2.83;1.60;;;10.10;99.90;;;;;;5051686;28;20294;-73
2021/12/30 02:58:08;;;;;;;4.07;1.60;;;10.10;99.90;;;;;;5051276;28;20213;-74
2021/12/30 03:00:35;;;;;;;4.23;1.30;;;10.10;99.90;;;;;;5051914;28;20226;-74
2021/12/30 03:03:00;;;;;;;2.03;1.60;;;10.10;99.90;;;;;;5051666;28;20180;-74
2021/12/30 03:05:26;;;;;;;2.93;1.40;;;10.10;99.90;;;;;;5051544;28;20217;-74
2021/12/30 03:07:53;;;;;;;2.80;1.27;;;10.10;99.90;;;;;;5050933;28;20193;-74
2021/12/30 03:10:21;;;;;;;1.87;1.30;;;10.00;99.90;;;;;;5051400;28;20711;-74
2021/12/30 03:12:53;;;;;;;2.40;1.40;;;10.10;99.90;;;;;;5051349;28;20205;-73
2021/12/30 03:15:19;;;;;;;2.50;1.40;;;10.20;99.90;;;;;;5051619;28;20211;-74
2021/12/30 03:17:45;;;;;;;2.37;1.30;;;10.20;99.90;;;;;;5051013;28;20387;-74
2021/12/30 03:20:11;;;;;;;3.97;1.50;;;10.20;99.90;;;;;;5051367;28;20656;-74
2021/12/30 03:22:38;;;;;;;1.30;1.10;;;10.10;99.90;;;;;;5051331;28;20179;-73
2021/12/30 03:25:06;;;;;;;1.33;1.10;;;10.10;99.90;;;;;;5051512;28;20218;-74
2021/12/30 03:27:32;;;;;;;1.50;1.00;;;10.00;99.90;;;;;;5050642;28;20195;-73
2021/12/30 03:29:58;;;;;;;1.70;1.20;;;10.00;99.90;;;;;;5051487;28;20592;-74
2021/12/30 03:32:23;;;;;;;4.10;1.43;;;10.00;99.90;;;;;;5051415;28;20175;-74
2021/12/30 03:34:49;;;;;;;1.50;1.30;;;10.00;99.90;;;;;;5051348;28;20624;-74
2021/12/30 03:37:14;;;;;;;2.50;1.40;;;10.00;99.90;;;;;;5050693;28;20175;-74
2021/12/30 03:39:40;;;;;;;2.67;1.30;;;10.10;99.90;;;;;;5051509;28;20179;-73
2021/12/30 03:42:06;;;;;;;1.87;1.20;;;10.00;99.90;;;;;;5051509;28;20175;-74
2021/12/30 03:44:32;;;;;;;3.47;1.30;;;10.00;99.90;;;;;;5051310;28;20266;-73
2021/12/30 03:46:58;;;;;;;2.83;1.20;;;10.00;99.90;;;;;;5053910;28;20736;-73
2021/12/30 03:49:23;;;;;;;1.60;1.40;;;10.00;99.90;;;;;;5055201;28;20199;-73
2021/12/30 03:51:51;;;;;;;1.40;1.30;;;10.10;99.90;;;;;;5054973;28;20516;-74
2021/12/30 03:54:17;;;;;;;2.90;1.20;;;10.10;99.90;;;;;;5055048;28;20215;-74
2021/12/30 03:56:42;;;;;;;2.90;1.53;;;10.10;99.90;;;;;;5055283;28;20774;-74
2021/12/30 03:59:09;;;;;;;2.60;1.40;;;10.20;99.90;;;;;;5054586;28;20198;-74
2021/12/30 04:01:35;;;;;;;3.30;1.20;;;10.30;99.90;;;;;;5055265;28;20178;-74
2021/12/30 04:04:01;;;;;;;4.23;1.20;;;10.40;99.90;;;;;;5054935;28;20195;-74
2021/12/30 04:06:27;;;;;;;2.40;1.23;;;10.50;99.90;;;;;;5054845;28;20348;-74
2021/12/30 04:08:54;;;;;;;3.30;1.30;;;10.60;99.90;;;;;;5054517;28;20195;-74
2021/12/30 04:11:23;;;;;;;1.40;1.20;;;10.60;99.90;;;;;;5054993;28;20179;-74
2021/12/30 04:13:49;;;;;;;2.23;1.10;;;10.60;99.90;;;;;;5054707;28;20534;-74
2021/12/30 04:16:14;;;;;;;2.83;1.40;;;10.70;99.90;;;;;;5054804;28;20171;-74
2021/12/30 04:18:40;;;;;;;3.43;1.50;;;10.80;99.90;;;;;;5054095;28;20199;-74
2021/12/30 04:21:05;;;;;;;2.40;1.30;;;10.80;99.90;;;;;;5054579;28;20167;-73
2021/12/30 04:23:31;;;;;;;2.23;1.10;;;10.80;99.90;;;;;;5054712;28;20663;-73
2021/12/30 04:25:57;;;;;;;2.80;1.30;;;10.90;99.90;;;;;;5054551;28;20214;-74
2021/12/30 04:28:22;;;;;;;1.60;1.20;;;10.90;99.90;;;;;;5054134;28;20191;-74
2021/12/30 04:30:48;;;;;;;4.87;1.40;;;10.90;99.90;;;;;;5054428;28;20619;-74
2021/12/30 04:33:15;;;;;;;1.30;1.20;;;11.00;99.90;;;;;;5054477;28;20175;-73
2021/12/30 04:35:40;;;;;;;1.50;1.30;;;11.00;99.90;;;;;;5054314;28;20229;-73
2021/12/30 04:38:06;;;;;;;1.43;1.20;;;11.10;99.90;;;;;;5053688;28;20191;-74
2021/12/30 04:40:32;;;;;;;1.27;1.17;;;11.10;99.90;;;;;;5054407;28;20190;-74
2021/12/30 04:42:57;;;;;;;1.10;1.00;;;11.20;99.90;;;;;;5054302;28;20163;-73
2021/12/30 04:45:25;;;;;;;1.73;1.27;;;11.20;99.90;;;;;;5054201;28;20246;-74
2021/12/30 04:47:50;;;;;;;2.77;1.10;;;11.20;99.90;;;;;;5053644;28;20214;-74
2021/12/30 04:50:16;;;;;;;2.00;1.30;;;11.20;99.90;;;;;;5054079;28;20207;-74
2021/12/30 04:52:42;;;;;;;1.63;1.10;;;11.10;99.90;;;;;;5054239;28;20175;-74
2021/12/30 04:55:08;;;;;;;4.37;1.40;;;11.10;99.90;;;;;;5053820;28;20248;-74
2021/12/30 04:57:34;;;;;;;1.53;1.30;;;11.10;99.90;;;;;;5052341;28;20199;-74
2021/12/30 05:00:00;;;;;;;3.47;1.20;;;11.10;99.90;;;;;;5053885;28;20266;-74
2021/12/30 05:02:34;;;;;;;3.03;1.17;;;11.10;99.90;;;;;;5053806;28;20178;-74
2021/12/30 05:05:00;;;;;;;2.43;1.20;;;11.10;99.90;;;;;;5053759;28;20586;-74
2021/12/30 05:07:25;;;;;;;1.77;1.20;;;11.10;99.90;;;;;;5053323;28;20195;-74
2021/12/30 05:09:51;;;;;;;2.30;1.17;;;11.10;99.90;;;;;;5053733;28;20194;-74
2021/12/30 05:12:16;;;;;;;2.17;1.20;;;11.10;99.90;;;;;;5053983;28;20175;-73
2021/12/30 05:14:42;;;;;;;2.57;1.20;;;11.10;99.90;;;;;;5062662;28;20183;-73
2021/12/30 05:17:07;;;;;;;4.10;1.40;;;11.10;99.90;;;;;;5055994;28;20175;-74
2021/12/30 05:19:33;;;;;;;3.33;1.10;;;11.10;99.90;;;;;;5053512;28;20179;-74
2021/12/30 05:21:59;;;;;;;1.33;1.13;;;11.10;99.90;;;;;;5053459;28;20705;-74
2021/12/30 05:24:24;;;;;;;1.97;1.20;;;11.00;99.90;;;;;;5053198;28;20183;-74
2021/12/30 05:26:50;;;;;;;3.70;1.47;;;11.00;99.90;;;;;;5053099;28;20175;-74
2021/12/30 05:29:15;;;;;;;3.77;1.40;;;11.00;99.90;;;;;;5053112;28;20195;-73
2021/12/30 05:31:41;;;;;;;2.80;1.20;;;11.00;99.90;;;;;;5053088;28;20233;-74
2021/12/30 05:34:06;;;;;;;1.83;1.30;;;11.00;99.90;;;;;;5052937;28;20175;-74
2021/12/30 05:36:32;;;;;;;1.47;1.10;;;11.00;99.90;;;;;;5053284;28;20262;-74
2021/12/30 05:38:58;;;;;;;2.23;1.30;;;11.00;99.90;;;;;;5052739;28;20222;-74
2021/12/30 05:41:26;;;;;;;4.30;1.37;;;11.00;99.90;;;;;;5053065;28;20179;-74
2021/12/30 05:43:51;;;;;;;3.10;1.30;;;11.00;99.90;;;;;;5053158;28;20236;-74
2021/12/30 05:46:17;;;;;;;2.20;1.57;;;11.00;99.90;;;;;;5052885;28;20298;-75
2021/12/30 05:48:42;;;;;;;3.23;2.13;;;11.00;99.90;;;;;;5052323;28;20274;-74
2021/12/30 05:51:08;;;;;;;4.73;2.00;;;11.00;99.90;;;;;;5053011;28;20167;-74
2021/12/30 05:53:33;;;;;;;4.00;2.20;;;11.00;99.90;;;;;;5052858;28;20236;-74
2021/12/30 05:55:59;;;;;;;3.30;2.00;;;11.00;99.90;;;;;;5052737;28;20221;-74
2021/12/30 05:58:25;;;;;;;50.40;38.20;;;11.00;99.90;;;;;;5052120;28;20610;-74
2021/12/30 06:00:50;;;;;;;70.17;63.77;;;10.90;99.90;;;;;;5052613;28;20225;-73
2021/12/30 06:03:19;;;;;;;15.33;13.93;;;10.90;99.90;;;;;;5052441;28;20175;-73
2021/12/30 06:05:46;;;;;;;8.47;7.67;;;10.90;99.90;;;;;;5052726;28;20215;-73
2021/12/30 06:08:12;;;;;;;9.93;9.03;;;10.90;99.90;;;;;;5059151;28;20199;-72
2021/12/30 06:10:39;;;;;;;4.13;2.57;;;10.90;99.90;;;;;;5062590;28;20270;-72
2021/12/30 06:13:05;;;;;;;5.10;1.90;;;11.00;99.90;;;;;;5054841;28;20713;-72
2021/12/30 06:15:30;;;;;;;1.90;1.80;;;11.00;99.90;;;;;;5051915;28;20179;-73
2021/12/30 06:17:56;;;;;;;2.20;2.00;;;11.10;99.90;;;;;;5052038;28;20248;-74
2021/12/30 06:20:21;;;;;;;4.07;2.10;;;11.20;99.90;;;;;;5052471;28;20179;-72
2021/12/30 06:22:48;;;;;;;8.27;1.80;;;11.20;99.90;;;;;;5052093;28;20198;-72
2021/12/30 06:25:14;;;;;;;5.83;1.30;;;11.30;99.90;;;;;;5052320;28;20210;-73
2021/12/30 06:27:40;;;;;;;1.80;1.10;;;11.40;99.90;;;;;;5051317;28;20195;-71
2021/12/30 06:30:06;;;;;;;1.67;1.57;;;11.40;99.90;;;;;;5051892;28;20175;-71
2021/12/30 06:32:32;;;;;;;3.27;2.73;;;11.50;99.90;;;;;;5050827;28;20175;-71
2021/12/30 06:34:57;;;;;;;1.80;1.20;;;11.50;99.90;;;;;;5052144;28;20221;-71
2021/12/30 06:37:23;;;;;;;2.37;2.17;;;11.50;99.90;;;;;;5051506;28;20543;-71
2021/12/30 06:39:48;;;;;;;2.10;1.90;;;11.50;99.90;;;;;;5052009;28;20199;-72
2021/12/30 06:42:14;;;;;;;3.03;2.63;;;11.50;99.90;;;;;;5051828;28;20167;-72
2021/12/30 06:44:40;;;;;;;4.57;2.70;;;11.50;99.90;;;;;;5051741;28;20245;-72
2021/12/30 06:47:05;;;;;;;3.40;2.03;;;11.60;99.90;;;;;;5051414;28;20187;-72
2021/12/30 06:49:36;;;;;;;1.30;1.20;;;11.60;99.90;;;;;;5051973;28;20416;-72
2021/12/30 06:52:06;;;;;;;4.47;4.10;;;11.60;99.90;;;;;;5051871;28;20190;-73
2021/12/30 06:54:32;;;;;;;5.93;1.80;;;11.60;99.90;;;;;;5051889;28;20286;-72
2021/12/30 06:57:00;;;;;;;3.90;2.77;;;11.60;99.90;;;;;;5051361;28;20262;-72
2021/12/30 06:59:27;;;;;;;1.00;1.00;;;11.50;99.90;;;;;;5051626;28;20168;-72
2021/12/30 07:01:52;;;;;;;1.90;1.20;;;11.60;99.90;;;;;;5051890;28;20217;-72
2021/12/30 07:04:18;;;;;;;2.73;1.07;;;11.60;99.90;;;;;;5051854;28;20210;-71
2021/12/30 07:06:44;;;;;;;1.87;1.40;;;11.60;99.90;;;;;;5051752;28;20601;-72
2021/12/30 07:09:09;;;;;;;1.10;1.00;;;11.60;99.90;;;;;;5051199;28;20278;-72
2021/12/30 07:11:35;;;;;;;3.10;1.50;;;11.60;99.90;;;;;;5051476;28;20647;-72
2021/12/30 07:14:00;;;;;;;1.70;1.30;;;11.60;99.90;;;;;;5052280;28;20186;-71
2021/12/30 07:16:26;;;;;;;6.47;5.97;;;11.60;99.90;;;;;;5052938;28;20179;-72
2021/12/30 07:18:51;;;;;;;2.37;1.47;;;11.60;99.90;;;;;;5052329;28;20548;-73
2021/12/30 07:21:17;;;;;;;1.50;1.40;;;11.60;99.90;;;;;;5051595;28;20278;-72
2021/12/30 07:23:43;;;;;;;2.07;1.60;;;11.60;99.90;;;;;;5051526;28;20253;-72
2021/12/30 07:26:08;;;;;;;1.70;1.30;;;11.70;99.90;;;;;;5051228;28;20652;-72
2021/12/30 07:28:34;;;;;;;4.40;1.60;;;11.70;99.90;;;;;;5050771;28;20701;-72
2021/12/30 07:30:59;;;;;;;2.10;1.70;;;11.70;99.90;;;;;;5051025;28;20648;-71
2021/12/30 07:33:25;;;;;;;1.30;1.20;;;11.70;99.90;;;;;;5051097;28;20244;-72
2021/12/30 07:35:50;;;;;;;3.03;1.50;;;11.70;99.90;;;;;;5050955;28;20706;-71
2021/12/30 07:38:16;;;;;;;2.33;1.67;;;11.70;99.90;;;;;;5049886;28;20571;-74
2021/12/30 07:40:41;;;;;;;1.50;1.30;;;11.70;99.90;;;;;;5050294;28;20233;-71
2021/12/30 07:43:07;;;;;;;1.30;1.03;;;11.70;99.90;;;;;;5050649;28;20175;-71
2021/12/30 07:45:33;;;;;;;1.57;1.27;;;11.80;99.90;;;;;;5050033;28;20214;-71
2021/12/30 07:47:58;;;;;;;2.40;1.47;;;11.80;99.90;;;;;;5049692;28;20570;-72
2021/12/30 07:50:24;;;;;;;2.83;1.20;;;11.80;99.90;;;;;;5049522;28;20191;-72
2021/12/30 07:52:50;;;;;;;1.37;1.07;;;11.80;99.90;;;;;;5047863;28;20179;-70
2021/12/30 07:55:16;;;;;;;4.30;1.23;;;11.80;99.90;;;;;;5050782;28;20191;-73
2021/12/30 07:57:43;;;;;;;1.70;1.20;;;11.80;99.90;;;;;;5050383;28;20689;-73
2021/12/30 08:00:13;;;;;;;1.27;1.17;;;11.80;99.90;;;;;;5051411;28;20183;-73
2021/12/30 08:02:42;;;;;;;1.47;1.20;;;11.90;99.90;;;;;;5051715;28;20172;-73
2021/12/30 08:05:09;;;;;;;2.23;1.50;;;11.90;99.90;;;;;;5051117;28;20211;-73
2021/12/30 08:07:34;;;;;;;2.57;1.10;;;11.90;99.90;;;;;;5050662;28;20203;-72
2021/12/30 08:10:00;;;;;;;1.30;0.90;;;12.00;99.90;;;;;;5060555;28;20187;-72
2021/12/30 08:12:25;;;;;;;1.60;0.93;;;12.00;99.90;;;;;;5051142;28;20176;-72
2021/12/30 08:14:51;;;;;;;1.17;1.07;;;12.00;99.90;;;;;;5051054;28;20648;-72
2021/12/30 08:17:16;;;;;;;1.80;1.00;;;12.00;99.90;;;;;;5050338;28;20542;-72
2021/12/30 08:19:42;;;;;;;1.50;1.00;;;12.10;99.90;;;;;;5051180;28;20198;-73
2021/12/30 08:22:08;;;;;;;1.63;1.10;;;12.10;99.90;;;;;;5050981;28;20183;-72
2021/12/30 08:24:33;;;;;;;2.37;1.40;;;12.10;99.90;;;;;;5050602;28;20237;-72
2021/12/30 08:26:59;;;;;;;4.27;1.30;;;12.10;99.90;;;;;;5050091;28;20179;-73
2021/12/30 08:29:26;;;;;;;2.10;1.90;;;12.20;99.90;;;;;;5050933;28;20258;-72
2021/12/30 08:31:52;;;;;;;1.97;1.87;;;12.20;99.90;;;;;;5052004;28;20187;-72
2021/12/30 08:34:17;;;;;;;2.10;1.90;;;12.20;99.90;;;;;;5054503;28;20704;-72
2021/12/30 08:36:43;;;;;;;2.37;1.20;;;12.20;99.90;;;;;;5054186;28;20519;-72
2021/12/30 08:39:08;;;;;;;4.43;1.90;;;12.30;99.90;;;;;;5053579;28;20202;-72
2021/12/30 08:41:34;;;;;;;2.23;1.40;;;12.30;99.90;;;;;;5054121;28;20179;-72
2021/12/30 08:43:59;;;;;;;2.07;1.10;;;12.30;99.90;;;;;;5054234;28;20183;-72
2021/12/30 08:46:25;;;;;;;2.30;1.23;;;12.40;99.90;;;;;;5054241;28;20282;-73
2021/12/30 08:48:50;;;;;;;2.97;1.50;;;12.50;99.90;;;;;;5053354;28;20195;-74
2021/12/30 08:51:16;;;;;;;3.10;1.53;;;12.50;99.90;;;;;;5053910;28;20175;-73
2021/12/30 08:53:42;;;;;;;2.97;1.80;;;12.80;99.90;;;;;;5053664;28;20203;-74
2021/12/30 08:56:08;;;;;;;1.27;1.17;;;12.90;99.90;;;;;;5053965;28;20176;-73
2021/12/30 08:58:35;;;;;;;0.90;0.90;;;12.90;99.90;;;;;;5053425;28;20195;-74
2021/12/30 09:01:01;;;;;;;1.40;1.10;;;12.70;99.90;;;;;;5053923;28;20277;-74
2021/12/30 09:03:27;;;;;;;3.40;1.50;;;12.90;99.90;;;;;;5053801;28;20184;-75
2021/12/30 09:05:52;;;;;;;1.90;1.40;;;13.00;99.90;;;;;;5053376;28;20203;-74
2021/12/30 09:08:18;;;;;;;2.07;1.30;;;13.10;99.90;;;;;;5052553;28;20216;-74
2021/12/30 09:10:46;;;;;;;2.83;1.27;;;13.70;99.90;;;;;;5053285;28;20670;-74
2021/12/30 09:13:14;;;;;;;1.13;1.00;;;14.40;99.90;;;;;;5053871;28;20237;-74
2021/12/30 09:15:40;;;;;;;1.17;1.00;;;15.00;99.90;;;;;;5053819;28;20190;-75
2021/12/30 09:18:07;;;;;;;2.07;0.83;;;15.30;99.90;;;;;;5053131;28;20195;-74
2021/12/30 09:20:33;;;;;;;0.97;0.83;;;15.50;61.20;;;;;;5052317;28;20186;-75
2021/12/30 09:23:00;;;;;;;1.10;1.00;;;15.90;29.30;;;;;;5053434;28;20175;-76
2021/12/30 09:25:26;;;;;;;1.30;1.05;;;16.30;1.00;;;;;;5053004;28;20474;-76
2021/12/30 09:27:54;;;;;;;1.67;1.17;;;16.40;1.00;;;;;;5052071;28;20207;-77
2021/12/30 09:30:19;;;;;;;1.30;1.20;;;16.70;1.00;;;;;;5053751;28;20175;-75
2021/12/30 09:32:48;;;;;;;1.20;1.10;;;16.90;1.00;;;;;;5053003;28;20179;-76
2021/12/30 09:35:14;;;;;;;1.10;1.00;;;17.00;1.00;;;;;;5052846;28;20175;-74
2021/12/30 09:37:41;;;;;;;1.00;1.00;;;16.80;1.00;;;;;;5052335;28;20222;-77
2021/12/30 09:40:10;;;;;;;1.50;1.40;;;17.10;1.00;;;;;;5052052;28;20175;-75
2021/12/30 09:42:36;;;;;;;1.33;1.13;;;17.50;1.00;;;;;;5053455;28;20175;-75
2021/12/30 09:45:04;;;;;;;1.20;1.10;;;17.80;1.00;;;;;;5052944;28;20268;-76
2021/12/30 09:47:29;;;;;;;1.87;1.10;;;17.60;1.00;;;;;;5053870;28;20202;-75
2021/12/30 09:49:55;;;;;;;1.70;1.60;;;16.60;1.00;;;;;;5057881;28;20179;-74
2021/12/30 09:52:21;;;;;;;2.90;2.70;;;16.50;1.00;;;;;;5055851;28;20183;-74
2021/12/30 09:54:46;;;;;;;2.60;0.90;;;16.10;1.00;;;;;;5053005;28;20195;-75
2021/12/30 09:57:13;;;;;;;1.13;0.90;;;15.90;11.90;;;;;;5052555;28;20573;-75
2021/12/30 09:59:39;;;;;;;1.23;1.13;;;15.90;1.00;;;;;;5053127;28;20187;-75
2021/12/30 10:02:04;;;;;;;1.03;0.87;;;15.70;1.00;;;;;;5052984;28;20237;-75
2021/12/30 10:04:33;;;;;;;2.40;1.30;;;15.80;32.80;;;;;;5052897;28;20183;-75
2021/12/30 10:07:00;;;;;;;1.67;1.10;;;15.70;8.30;;;;;;5051975;28;20190;-75
2021/12/30 10:09:50;;;;;;;1.20;1.10;;;15.60;84.90;;;;;;5052664;28;20202;-75
2021/12/30 10:12:15;;;;;;;1.37;1.17;;;15.60;11.40;;;;;;5052555;28;20262;-76
2021/12/30 10:14:41;;;;;;;1.57;1.10;;;15.80;1.00;;;;;;5052376;28;20266;-75
2021/12/30 10:17:20;;;;;;;1.10;1.00;;;15.70;1.00;;;;;;5051747;28;20178;-75
2021/12/30 10:19:46;;;;;;;0.93;0.90;;;15.50;1.00;;;;;;5052356;28;20698;-77
2021/12/30 10:22:14;;;;;;;0.90;0.90;;;15.40;39.50;;;;;;5052210;28;20211;-75
2021/12/30 10:24:41;;;;;;;0.80;0.80;;;15.50;91.00;;;;;;5052105;28;20202;-75
2021/12/30 10:27:07;;;;;;;0.90;0.87;;;15.40;27.40;;;;;;5051803;28;20182;-75
2021/12/30 10:29:43;;;;;;;1.90;1.00;;;15.40;31.40;;;;;;5052621;28;20826;-75
2021/12/30 10:32:13;;;;;;;1.67;1.03;;;15.40;53.20;;;;;;5052220;28;20186;-76
2021/12/30 10:35:09;;;;;;;0.90;0.90;;;15.60;5.30;;;;;;5052117;28;20613;-74
2021/12/30 10:37:38;;;;;;;0.90;0.90;;;15.50;38.50;;;;;;5051534;28;20198;-74
2021/12/30 10:40:05;;;;;;;1.27;0.83;;;15.80;1.00;;;;;;5051982;28;20569;-75
2021/12/30 10:42:32;;;;;;;1.10;0.77;;;15.90;1.00;;;;;;5052150;28;20229;-75
2021/12/30 10:45:05;;;;;;;1.30;1.00;;;16.00;1.00;;;;;;5051978;28;20209;-75
2021/12/30 10:47:48;;;;;;;1.10;1.00;;;16.30;1.00;;;;;;5051384;28;20187;-75
2021/12/30 10:50:14;;;;;;;1.00;0.90;;;16.40;1.00;;;;;;5052116;28;20542;-75
2021/12/30 10:52:47;;;;;;;0.70;0.70;;;16.20;1.00;;;;;;5052237;28;20171;-75
2021/12/30 10:55:14;;;;;;;0.80;0.80;;;16.50;1.00;;;;;;5050883;28;20202;-75
2021/12/30 10:57:39;;;;;;;1.90;1.00;;;16.50;1.00;;;;;;5051110;28;20241;-77
2021/12/30 11:00:08;;;;;;;0.87;0.87;;;16.70;1.00;;;;;;5051529;28;20198;-75
2021/12/30 11:02:34;;;;;;;0.77;0.77;;;16.80;1.00;;;;;;5051941;28;20183;-74
2021/12/30 11:05:07;;;;;;;0.97;0.90;;;16.80;1.00;;;;;;5052658;28;20210;-74
2021/12/30 11:07:42;;;;;;;0.90;0.90;;;16.60;1.00;;;;;;5062489;28;20203;-75
2021/12/30 11:10:11;;;;;;;3.77;1.17;;;16.60;1.00;;;;;;5051729;28;20178;-76
2021/12/30 11:12:41;;;;;;;3.57;2.37;;;16.50;1.00;;;;;;5056182;28;20179;-74
2021/12/30 11:15:23;;;;;;;3.40;3.10;;;16.20;1.00;;;;;;5058878;28;20179;-74
2021/12/30 11:17:49;;;;;;;2.40;2.20;;;16.00;1.00;;;;;;5055687;28;20208;-74
2021/12/30 11:20:17;;;;;;;3.30;3.00;;;16.10;1.00;;;;;;5051516;28;20171;-74
2021/12/30 11:22:44;;;;;;;2.07;1.27;;;16.40;1.00;;;;;;5051952;28;20186;-76
2021/12/30 11:25:12;;;;;;;1.30;1.20;;;16.80;1.00;;;;;;5051405;28;20206;-76
2021/12/30 11:27:38;;;;;;;1.57;1.10;;;16.70;1.00;;;;;;5050788;28;20564;-76
2021/12/30 11:30:11;;;;;;;1.20;1.10;;;16.90;1.00;;;;;;5051086;28;20648;-77
2021/12/30 11:32:37;;;;;;;1.40;1.30;;;16.80;1.00;;;;;;5051480;28;20221;-76
2021/12/30 11:35:05;;;;;;;1.43;1.33;;;16.60;1.00;;;;;;5051319;28;20171;-76
2021/12/30 11:37:32;;;;;;;1.30;1.13;;;16.20;1.00;;;;;;5050704;28;20234;-76
2021/12/30 11:40:01;;;;;;;1.10;1.00;;;16.00;1.00;;;;;;5051141;28;20170;-76
2021/12/30 11:42:37;;;;;;;2.43;1.20;;;15.80;1.00;;;;;;5051087;28;20175;-77
2021/12/30 11:45:22;;;;;;;1.07;1.00;;;15.90;1.00;;;;;;5051018;28;20222;-76
2021/12/30 11:47:48;;;;;;;1.03;1.00;;;16.00;1.00;;;;;;5050651;28;20203;-76
2021/12/30 11:50:17;;;;;;;1.40;1.13;;;16.00;1.00;;;;;;5051072;28;20178;-76
2021/12/30 11:53:02;;;;;;;6.10;1.20;;;16.10;1.00;;;;;;5050969;28;20694;-76
2021/12/30 11:55:54;;;;;;;1.10;1.00;;;16.10;1.00;;;;;;5051364;28;20207;-74
2021/12/30 11:58:32;;;;;;;1.33;1.07;;;16.30;1.00;;;;;;5050227;28;20192;-74
2021/12/30 12:01:13;;;;;;;1.00;1.00;;;15.90;1.00;;;;;;5050856;28;20198;-74
2021/12/30 12:03:52;;;;;;;1.20;1.10;;;15.80;1.00;;;;;;5050666;28;20585;-74
2021/12/30 12:06:33;;;;;;;1.30;1.20;;;15.80;20.90;;;;;;5051123;28;20214;-74
2021/12/30 12:09:08;;;;;;;0.90;0.90;;;16.00;2.40;;;;;;5054242;28;20198;-73
2021/12/30 12:11:49;;;;;;;0.90;0.90;;;15.90;7.40;;;;;;5054738;28;20174;-75
2021/12/30 12:14:16;;;;;;;1.53;1.10;;;16.00;1.00;;;;;;5055013;28;20255;-75
2021/12/30 12:16:44;;;;;;;1.67;0.90;;;16.00;20.40;;;;;;5054712;28;20258;-74
2021/12/30 12:19:11;;;;;;;1.60;0.90;;;15.90;1.00;;;;;;5054295;28;20195;-74
2021/12/30 12:21:38;;;;;;;1.07;0.97;;;15.70;7.80;;;;;;5054610;28;20182;-74
2021/12/30 12:24:28;;;;;;;1.50;1.40;;;15.70;55.60;;;;;;5053765;28;20270;-74
2021/12/30 12:26:59;;;;;;;1.10;1.00;;;15.70;60.80;;;;;;5051574;28;20215;-75
2021/12/30 12:29:37;;;;;;;1.00;0.90;;;15.70;12.20;;;;;;5054176;28;20233;-74
2021/12/30 12:32:10;;;;;;;1.10;0.80;;;16.00;1.00;;;;;;5052762;28;20187;-75
2021/12/30 12:34:42;;;;;;;1.00;1.00;;;16.20;1.00;;;;;;5054448;28;20182;-76
2021/12/30 12:37:29;;;;;;;0.90;0.90;;;16.40;1.00;;;;;;5053791;28;20180;-74
2021/12/30 12:40:00;;;;;;;0.80;0.80;;;16.70;1.00;;;;;;5055930;28;20178;-75
2021/12/30 12:42:53;;;;;;;0.53;0.53;;;17.70;99.90;;;;;;5055678;28;20179;-74
2021/12/30 12:45:54;;;;;;;0.60;0.60;;;17.00;1.00;;;;;;5054081;28;20246;-74
2021/12/30 12:48:22;;;;;;;0.60;0.60;;;16.50;1.00;;;;;;5047895;28;20207;-75
2021/12/30 12:51:07;;;;;;;0.60;0.60;;;16.20;1.00;;;;;;5053949;28;20248;-74